• Join FlightAware (Why Join?)
  • Login
  • US Flag 
09:55PM EDT


 

Airport Tracker/Info


-or-


 

Live Flight TrackerFlight Track Log ✈ N5139E ✈ 12-Oct-2013 ✈ KSYR - KBGM

Flight Track Log - Related Links

Times and Time Zones

All times are in EDT time to prevent confusion due to time zone crossing. See the N5139E flight status page for this flight to view local times or setup timezone preferences in your user account.

Time Position Orientation Groundspeed Altitude Reporting Facility
EDT Latitude Longitude Course Direction KTS MPH feet Rate Location/Type
02:18PM 43.1072 -76.0153 175° South 71 82 2,800  Level Boston Center
02:19PM 43.0889 -76.0000 149° Southeast 86 99 3,500 660 Climbing Boston Center
02:20PM 43.0678 -76.0072 194° South 83 96 4,200 540 Climbing Boston Center
02:21PM 43.0447 -76.0144 193° South 82 94 4,700 480 Climbing Boston Center
02:22PM 43.0219 -76.0103 172° South 80 92 5,200 480 Climbing Boston Center
02:23PM 42.9992 -76.0033 167° South 82 94 5,700 300 Climbing Boston Center
02:24PM 42.9238 -76.0797 175° South  Level Estimated
02:24PM 42.9719 -76.0072 186° South 104 120 5,900  Level Boston Center
02:25PM 42.9428 -76.0028 174° South 113 130 5,800  Descending Boston Center
02:26PM 42.9114 -76.0039 181° South 109 125 5,900 60 Climbing Boston Center
02:28PM 42.8685 -76.0024 175° South  Level Estimated
02:35PM 42.6487 -76.0113 182° South  Level FlightAware Approximate
02:36PM 42.6173 -76.0126 182° South  Level FlightAware Approximate
02:37PM 42.5859 -76.0139 182° South  Level FlightAware Approximate
02:38PM 42.5546 -76.0151 182° South  Level FlightAware Approximate
02:39PM 42.5232 -76.0164 182° South  Level FlightAware Approximate
02:40PM 42.4871 -76.0117 173° South  Level FlightAware Approximate
02:41PM 42.4559 -76.0065 173° South  Level FlightAware Approximate
02:42PM 42.4248 -76.0013 173° South  Level FlightAware Approximate
02:43PM 42.3936 -75.9954 172° South  Level FlightAware Approximate
02:44PM 42.3626 -75.9892 172° South  Level FlightAware Approximate
02:45PM 42.3315 -75.9833 180° South  Level FlightAware Approximate
02:46PM 42.3001 -75.9833 180° South  Level FlightAware Approximate
02:47PM 42.2690 -75.9771 172° South  Level FlightAware Approximate
02:48PM 42.2379 -75.9709 172° South  Level FlightAware Approximate
02:49PM 42.2068 -75.9667 180° South  Level FlightAware Approximate
02:50PM 42.2000 -75.9667 180° South  Level FlightAware Approximate
02:51PM 42.2084 -75.9796 180° South  Level Estimated
02:52PM 42.2084 -75.9796 180° South  Level Estimated
02:53PM 42.2084 -75.9796 180° South  Level Estimated
02:54PM 42.2084 -75.9796 180° South  Level Estimated
02:55PM 42.2084 -75.9796 180° South  Level Estimated
02:56PM 42.2084 -75.9796 180° South  Level Estimated
02:57PM 42.2084 -75.9796 180° South  Level Estimated
02:58PM 42.2084 -75.9796 180° South  Level Estimated
02:59PM 42.2084 -75.9796 180° South  Level Estimated